Time;durP1;ratioP1;P1;durP2;ratioP2;P2;SDS_P1;SDS_P2;PMS_P1;PMS_P2;Temp;Humidity;BMP_temperature;BMP_pressure;BME280_temperature;BME280_humidity;BME280_pressure;Samples;Min_cycle;Max_cycle;Signal;HPM_P1;HPM_P2
2022/05/17 00:00:53;;;;;;;8.18;2.05;;;;;;;14.66;36.42;101083.84;5017664;28;20085;-74
2022/05/17 00:03:20;;;;;;;6.13;2.63;;;;;;;14.65;36.51;101079.47;5017852;28;20050;-74
2022/05/17 00:05:47;;;;;;;11.27;2.50;;;;;;;14.54;36.48;101069.06;5018059;28;20473;-74
2022/05/17 00:08:16;;;;;;;7.53;2.15;;;;;;;14.52;36.58;101063.84;5018013;28;20077;-73
2022/05/17 00:10:43;;;;;;;8.65;2.30;;;;;;;14.53;36.69;101064.69;5018476;28;20084;-74
2022/05/17 00:13:10;;;;;;;9.95;2.17;;;;;;;14.38;39.25;101064.59;5017571;28;20133;-74
2022/05/17 00:15:42;;;;;;;8.00;2.53;;;;;;;13.88;42.28;101065.00;5018434;28;20081;-74
2022/05/17 00:18:11;;;;;;;8.10;2.88;;;;;;;13.52;45.11;101068.91;5019080;28;20058;-73
2022/05/17 00:20:39;;;;;;;9.85;2.30;;;;;;;13.27;43.14;101069.97;5017870;28;20144;-74
2022/05/17 00:23:07;;;;;;;6.10;2.78;;;;;;;13.23;43.95;101068.63;5017946;28;20085;-74
2022/05/17 00:25:35;;;;;;;5.75;2.28;;;;;;;13.33;42.36;101070.13;5017638;28;20133;-73
2022/05/17 00:28:02;;;;;;;6.57;2.33;;;;;;;13.53;41.96;101072.47;5018543;28;20088;-74
2022/05/17 00:30:28;;;;;;;10.90;2.97;;;;;;;13.74;41.19;101064.66;5017426;28;20052;-72
2022/05/17 00:32:55;;;;;;;7.70;2.65;;;;;;;13.80;41.19;101069.41;5017908;28;20477;-73
2022/05/17 00:35:21;;;;;;;7.97;2.45;;;;;;;13.82;40.82;101063.81;5017344;28;20100;-73
2022/05/17 00:37:48;;;;;;;9.88;2.33;;;;;;;13.87;40.88;101063.28;5017962;28;20472;-74
2022/05/17 00:40:15;;;;;;;10.20;2.80;;;;;;;13.95;40.99;101065.97;5017900;28;20133;-73
2022/05/17 00:42:42;;;;;;;7.20;2.42;;;;;;;14.05;42.12;101063.94;5018028;28;20084;-73
2022/05/17 00:45:09;;;;;;;6.20;2.28;;;;;;;13.92;43.26;101066.34;5017593;28;20053;-73
2022/05/17 00:47:42;;;;;;;5.38;2.25;;;;;;;13.66;44.50;101061.97;5017059;28;20144;-73
2022/05/17 00:50:30;;;;;;;7.57;2.55;;;;;;;13.54;43.62;101074.16;5017612;28;20049;-73
2022/05/17 00:53:01;;;;;;;8.85;2.40;;;;;;;13.54;43.43;101068.75;5016756;28;20136;-73
2022/05/17 00:55:33;;;;;;;6.85;2.20;;;;;;;13.59;44.39;101074.47;5016958;28;20212;-73
2022/05/17 00:58:07;;;;;;;;;;;;;;;13.52;45.57;101073.47;5017328;28;20514;-73
2022/05/17 01:00:43;;;;;;;5.82;2.58;;;;;;;13.23;46.93;101066.75;5017355;28;19975;-73
2022/05/17 01:03:15;;;;;;;7.18;2.33;;;;;;;13.04;46.74;101064.41;5017009;28;20065;-73
2022/05/17 01:09:26;;;;;;;12.20;2.55;;;;;;;13.16;45.92;101065.75;5016553;28;20425;-74
2022/05/17 01:11:54;;;;;;;10.07;3.08;;;;;;;13.08;46.11;101068.47;5017028;28;20129;-74
2022/05/17 01:17:06;;;;;;;7.43;2.72;;;;;;;13.18;46.47;101062.88;5017845;28;20084;-74
2022/05/17 01:19:33;;;;;;;10.95;2.60;;;;;;;13.17;46.31;101064.75;5016452;28;20058;-74
2022/05/17 01:21:59;;;;;;;6.68;2.38;;;;;;;13.20;46.62;101067.09;5016859;28;20137;-73
2022/05/17 01:24:26;;;;;;;6.82;2.40;;;;;;;13.39;46.16;101067.75;5016829;28;20049;-74
2022/05/17 01:27:01;;;;;;;8.25;2.40;;;;;;;13.45;45.92;101067.91;5016447;28;20064;-74
2022/05/17 01:29:27;;;;;;;7.35;2.88;;;;;;;13.45;46.06;101075.16;5017283;28;20093;-73
2022/05/17 01:31:54;;;;;;;11.98;3.00;;;;;;;13.44;46.01;101074.31;5016420;28;20145;-73
2022/05/17 01:34:21;;;;;;;13.80;2.72;;;;;;;13.39;46.28;101076.69;5016452;28;20517;-73
2022/05/17 01:36:47;;;;;;;9.13;2.65;;;;;;;13.37;46.79;101085.97;5016598;28;20476;-73
2022/05/17 01:39:14;;;;;;;9.25;2.58;;;;;;;13.49;46.90;101081.88;5016368;28;20140;-73
2022/05/17 01:41:40;;;;;;;8.98;2.88;;;;;;;13.40;47.57;101083.75;5016837;28;20132;-73
2022/05/17 01:44:08;;;;;;;5.85;2.80;;;;;;;13.39;48.33;101083.91;5015386;28;20069;-72
2022/05/17 01:46:35;;;;;;;9.35;3.05;;;;;;;13.26;48.73;101085.28;5015947;28;20136;-72
2022/05/17 01:49:01;;;;;;;5.38;2.55;;;;;;;13.21;48.53;101084.94;5016173;28;20529;-73
2022/05/17 01:51:28;;;;;;;8.27;2.60;;;;;;;13.30;48.88;101093.88;5016048;28;20132;-73
2022/05/17 01:53:54;;;;;;;6.65;2.33;;;;;;;13.32;48.61;101097.25;5016070;28;20088;-73
2022/05/17 01:56:21;;;;;;;8.15;3.10;;;;;;;13.44;48.49;101101.28;5016392;28;20085;-73
2022/05/17 01:58:47;;;;;;;10.98;2.90;;;;;;;13.41;49.09;101108.84;5015919;28;20473;-73
2022/05/17 02:01:13;;;;;;;10.23;2.97;;;;;;;13.46;49.47;101114.59;5015536;28;20046;-74
2022/05/17 02:03:40;;;;;;;6.28;2.60;;;;;;;13.48;50.24;101113.41;5015513;28;20061;-73
2022/05/17 02:06:07;;;;;;;6.80;2.65;;;;;;;13.54;51.24;101111.88;5015514;28;20058;-73
2022/05/17 02:08:34;;;;;;;12.25;2.67;;;;;;;13.57;51.94;101107.00;5015193;28;20145;-73
2022/05/17 02:11:01;;;;;;;13.68;3.13;;;;;;;13.59;53.09;101110.38;5015698;28;20430;-72
2022/05/17 02:13:27;;;;;;;5.43;2.60;;;;;;;13.54;53.55;101106.50;5015546;28;20137;-73
2022/05/17 02:15:54;;;;;;;13.52;2.80;;;;;;;13.62;53.83;101119.13;5015695;28;20104;-72
2022/05/17 02:18:20;;;;;;;8.63;2.55;;;;;;;13.66;54.27;101113.19;5015173;28;20137;-73
2022/05/17 02:20:47;;;;;;;6.32;2.78;;;;;;;13.63;55.59;101110.00;5015425;28;20152;-73
2022/05/17 02:23:14;;;;;;;8.35;2.75;;;;;;;13.53;56.58;101111.03;5015206;28;20053;-73
2022/05/17 02:25:40;;;;;;;11.70;3.40;;;;;;;13.52;57.11;101119.28;5015064;28;20045;-73
2022/05/17 02:28:08;;;;;;;7.55;3.30;;;;;;;13.46;58.12;101122.69;5015844;28;20230;-73
2022/05/17 02:30:35;;;;;;;9.10;3.60;;;;;;;13.40;59.25;101123.34;5015278;28;20140;-73
2022/05/17 02:33:04;;;;;;;9.20;3.42;;;;;;;13.38;59.08;101115.41;5015420;28;20056;-73
2022/05/17 02:35:30;;;;;;;9.40;3.33;;;;;;;13.37;59.20;101127.22;5015253;28;20104;-73
2022/05/17 02:37:57;;;;;;;12.45;3.13;;;;;;;13.30;59.74;101137.00;5016216;28;20532;-73
2022/05/17 02:40:23;;;;;;;13.15;3.78;;;;;;;13.24;60.31;101130.41;5015095;28;20125;-73
2022/05/17 02:42:50;;;;;;;7.65;3.78;;;;;;;13.23;61.38;101134.13;5014816;28;20132;-73
2022/05/17 02:45:16;;;;;;;9.38;2.85;;;;;;;13.26;60.88;101135.66;5015396;28;20140;-74
2022/05/17 02:47:43;;;;;;;11.55;3.78;;;;;;;13.15;61.31;101138.69;5015563;28;20057;-74
2022/05/17 02:50:10;;;;;;;8.07;3.35;;;;;;;13.05;61.37;101138.81;5014962;28;20140;-73
2022/05/17 02:52:38;;;;;;;7.90;3.38;;;;;;;13.05;61.40;101136.97;5015200;28;20144;-74
2022/05/17 02:55:05;;;;;;;7.93;3.40;;;;;;;13.10;61.68;101142.69;5015649;28;20473;-74
2022/05/17 02:57:32;;;;;;;11.20;3.53;;;;;;;13.10;61.98;101148.06;5015458;28;20084;-73
2022/05/17 02:59:59;;;;;;;13.85;3.45;;;;;;;13.05;63.76;101147.75;5015095;28;20077;-74
2022/05/17 03:02:26;;;;;;;9.07;3.92;;;;;;;12.99;63.94;101147.56;5016194;28;20054;-74
2022/05/17 03:04:53;;;;;;;9.15;3.78;;;;;;;13.00;63.93;101155.47;5014720;28;20077;-74
2022/05/17 03:07:19;;;;;;;15.73;4.32;;;;;;;12.93;63.91;101169.75;5015032;28;20144;-74
2022/05/17 03:09:46;;;;;;;16.00;3.97;;;;;;;12.81;64.92;101172.78;5015767;28;20226;-76
2022/05/17 03:12:12;;;;;;;10.15;3.72;;;;;;;12.79;65.86;101177.47;5015048;28;20049;-75
2022/05/17 03:14:39;;;;;;;13.18;4.10;;;;;;;12.81;66.60;101170.06;5014609;28;20430;-74
2022/05/17 03:17:16;;;;;;;12.93;4.28;;;;;;;12.75;67.61;101172.56;5014566;28;20088;-74
2022/05/17 03:19:44;;;;;;;13.48;4.38;;;;;;;12.72;69.13;101176.41;5014840;28;20417;-74
2022/05/17 03:22:11;;;;;;;10.75;4.32;;;;;;;12.75;69.38;101176.09;5014777;28;20476;-74
2022/05/17 03:24:38;;;;;;;14.38;4.20;;;;;;;12.76;69.79;101177.78;5014439;28;20148;-73
2022/05/17 03:27:24;;;;;;;13.55;4.10;;;;;;;12.73;70.48;101178.09;5013832;28;20065;-74
2022/05/17 03:29:51;;;;;;;12.85;4.60;;;;;;;12.75;70.15;101184.19;5014053;28;20096;-74
2022/05/17 03:32:17;;;;;;;13.68;4.15;;;;;;;12.64;69.78;101184.47;5013828;28;20054;-74
2022/05/17 03:34:44;;;;;;;16.70;4.68;;;;;;;12.65;70.92;101192.34;4996651;28;20050;-75
2022/05/17 03:37:11;;;;;;;15.13;5.43;;;;;;;12.62;71.81;101181.06;5014523;28;20045;-73
2022/05/17 03:39:37;;;;;;;12.35;4.85;;;;;;;12.59;72.02;101193.03;5014699;28;20081;-74
2022/05/17 03:42:04;;;;;;;11.90;4.70;;;;;;;12.44;72.66;101199.16;5015526;28;20489;-75
2022/05/17 03:44:31;;;;;;;12.07;4.35;;;;;;;12.38;72.56;101209.59;5015284;28;20394;-74
2022/05/17 03:46:57;;;;;;;12.70;4.63;;;;;;;12.33;72.60;101211.91;5015506;28;20469;-74
2022/05/17 03:49:24;;;;;;;15.88;5.03;;;;;;;12.28;72.87;101216.06;5014881;28;20050;-74
2022/05/17 03:51:51;;;;;;;10.82;4.57;;;;;;;12.25;73.16;101211.84;5014308;28;20049;-74
2022/05/17 03:54:22;;;;;;;14.13;4.85;;;;;;;12.22;73.92;101214.88;5014639;28;20137;-74
2022/05/17 03:56:48;;;;;;;15.85;5.43;;;;;;;12.22;74.02;101206.78;5013778;28;20050;-74
2022/05/17 03:59:15;;;;;;;19.20;5.18;;;;;;;12.23;74.34;101207.63;5014169;28;20050;-74
2022/05/17 04:01:41;;;;;;;13.77;4.95;;;;;;;12.22;74.25;101212.16;5013636;28;20073;-74
2022/05/17 04:04:08;;;;;;;14.98;7.53;;;;;;;12.21;73.93;101221.25;5013601;28;20141;-73
2022/05/17 04:06:34;;;;;;;20.17;7.47;;;;;;;12.13;74.32;101219.34;5013959;28;20469;-74
2022/05/17 04:09:01;;;;;;;13.10;5.75;;;;;;;12.10;75.14;101208.88;5014478;28;20554;-73
2022/05/17 04:11:27;;;;;;;16.17;4.93;;;;;;;12.02;74.88;101216.06;5013916;28;20057;-74
2022/05/17 04:13:53;;;;;;;18.50;4.88;;;;;;;11.96;75.69;101209.47;5014393;28;20050;-74
2022/05/17 04:16:20;;;;;;;12.57;5.07;;;;;;;11.91;76.14;101195.66;5013889;28;20053;-74
2022/05/17 04:18:47;;;;;;;14.43;4.43;;;;;;;11.79;75.78;101219.25;5013620;28;20054;-74
2022/05/17 04:21:14;;;;;;;14.05;4.82;;;;;;;11.75;74.34;101231.31;5013270;28;20133;-73
2022/05/17 04:23:41;;;;;;;10.10;4.43;;;;;;;11.73;74.87;101224.44;5013654;28;20465;-74
2022/05/17 04:26:08;;;;;;;10.18;3.95;;;;;;;11.75;74.33;101234.00;5013563;28;20108;-74
2022/05/17 04:28:35;;;;;;;16.17;4.40;;;;;;;11.79;73.96;101238.06;5013492;28;20472;-74
2022/05/17 04:31:01;;;;;;;13.27;4.63;;;;;;;11.71;75.24;101229.94;5013405;28;20332;-73
2022/05/17 04:33:28;;;;;;;15.27;4.78;;;;;;;11.58;75.45;101229.47;5013658;28;20076;-74
2022/05/17 04:35:54;;;;;;;9.18;4.10;;;;;;;11.57;76.50;101217.03;5013576;28;20439;-74
2022/05/17 04:38:21;;;;;;;10.90;4.90;;;;;;;11.46;77.31;101205.53;5013694;28;20136;-74
2022/05/17 04:40:48;;;;;;;13.05;5.15;;;;;;;11.46;78.09;101191.25;5013578;28;20100;-74
2022/05/17 04:43:14;;;;;;;15.05;5.47;;;;;;;11.71;77.67;101195.00;5015408;28;20140;-75
2022/05/17 04:45:44;;;;;;;9.10;4.75;;;;;;;11.58;78.07;101194.53;5016612;28;20069;-74
2022/05/17 04:48:11;;;;;;;10.90;5.10;;;;;;;11.24;76.23;101203.31;5016960;28;20053;-74
2022/05/17 04:50:37;;;;;;;13.63;4.55;;;;;;;11.38;76.33;101213.53;5017434;28;20089;-74
2022/05/17 04:53:04;;;;;;;9.48;4.55;;;;;;;11.38;77.01;101204.63;5016603;28;20089;-74
2022/05/17 04:55:31;;;;;;;13.18;5.47;;;;;;;11.41;77.06;101201.59;5017063;28;20458;-74
2022/05/17 04:57:58;;;;;;;12.98;5.30;;;;;;;11.43;77.49;101195.09;5016708;28;20476;-74
2022/05/17 05:00:25;;;;;;;11.95;5.53;;;;;;;11.41;77.67;101191.72;5017031;28;20140;-73
2022/05/17 05:02:52;;;;;;;8.70;4.95;;;;;;;11.36;77.86;101194.00;5017032;28;20060;-73
2022/05/17 05:05:20;;;;;;;11.82;5.68;;;;;;;11.43;77.49;101196.94;5016720;28;20133;-74
2022/05/17 05:07:48;;;;;;;13.02;5.10;;;;;;;11.40;77.14;101202.59;5016916;28;20046;-74
2022/05/17 05:10:15;;;;;;;17.83;5.50;;;;;;;11.38;77.63;101192.03;5017273;28;20468;-74
2022/05/17 05:12:42;;;;;;;14.20;5.72;;;;;;;11.34;78.05;101192.47;4998835;28;20141;-74
2022/05/17 05:15:10;;;;;;;15.07;7.10;;;;;;;11.39;79.26;101174.91;5016918;28;20050;-74
2022/05/17 05:17:37;;;;;;;13.98;6.05;;;;;;;11.35;79.27;101178.91;5016603;28;20069;-73
2022/05/17 05:20:07;;;;;;;14.50;5.95;;;;;;;11.36;80.64;101167.16;5016371;28;20084;-73
2022/05/17 05:22:34;;;;;;;17.83;6.45;;;;;;;11.45;80.09;101162.72;5015751;28;20045;-74
2022/05/17 05:25:05;;;;;;;23.05;7.95;;;;;;;11.45;81.12;101154.66;4999406;28;20053;-74
2022/05/17 05:27:33;;;;;;;16.48;7.88;;;;;;;12.99;78.26;101171.81;5015545;28;20125;-73
2022/05/17 05:30:00;;;;;;;18.48;6.60;;;;;;;13.82;70.96;101221.06;5015734;28;20499;-72
2022/05/17 05:32:27;;;;;;;27.38;9.15;;;;;;;13.18;70.81;101211.06;5015605;28;20092;-73
2022/05/17 05:34:53;;;;;;;15.90;7.70;;;;;;;11.23;81.58;101134.47;5015813;28;20049;-72
2022/05/17 05:37:20;;;;;;;21.48;8.82;;;;;;;10.83;83.13;101106.25;5015630;28;20081;-73
2022/05/17 05:39:46;;;;;;;19.42;7.70;;;;;;;10.61;84.88;101085.19;5015885;28;20133;-74
2022/05/17 05:42:13;;;;;;;16.50;7.43;;;;;;;10.63;85.65;101080.53;5016250;28;20141;-74
2022/05/17 05:44:39;;;;;;;25.77;9.13;;;;;;;10.63;85.68;101088.59;5016819;28;20058;-75
2022/05/17 05:47:06;;;;;;;25.90;9.15;;;;;;;10.53;86.14;101098.53;5016290;28;20541;-73
2022/05/17 05:49:32;;;;;;;46.58;12.63;;;;;;;10.59;86.79;101096.09;5023695;28;20048;-70
2022/05/17 05:51:59;;;;;;;27.08;12.13;;;;;;;10.65;87.15;101103.56;5016212;28;20050;-71
2022/05/17 05:54:25;;;;;;;22.98;10.43;;;;;;;10.65;87.15;101113.41;5015539;28;20112;-70
2022/05/17 05:56:52;;;;;;;24.23;11.23;;;;;;;10.62;87.87;101116.44;5015906;28;20517;-70
2022/05/17 05:59:18;;;;;;;27.13;12.13;;;;;;;10.58;88.10;101112.34;5015704;28;20084;-70
2022/05/17 06:01:45;;;;;;;21.17;11.15;;;;;;;10.56;88.42;101114.34;5016902;28;20457;-70
2022/05/17 06:04:11;;;;;;;27.10;11.45;;;;;;;10.50;88.79;101116.63;5016418;28;20054;-70
2022/05/17 06:06:40;;;;;;;24.63;11.20;;;;;;;10.52;88.70;101134.41;5015358;28;20061;-71
2022/05/17 06:09:06;;;;;;;24.38;11.77;;;;;;;10.60;89.25;101124.59;5015851;28;20054;-70
2022/05/17 06:11:33;;;;;;;19.95;10.02;;;;;;;10.64;88.76;101127.84;5016842;28;20077;-70
2022/05/17 06:14:02;;;;;;;21.10;11.95;;;;;;;10.76;88.49;101145.44;5017070;28;20049;-70
2022/05/17 06:16:28;;;;;;;25.80;10.55;;;;;;;10.72;87.88;101165.47;5017284;28;20085;-70
2022/05/17 06:18:55;;;;;;;19.20;10.38;;;;;;;10.76;88.05;101158.00;5016047;28;20054;-70
2022/05/17 06:21:22;;;;;;;22.58;10.02;;;;;;;10.79;87.81;101165.72;5015494;28;20553;-70
2022/05/17 06:23:49;;;;;;;26.67;11.15;;;;;;;10.80;88.18;101160.22;5015909;28;20525;-69
2022/05/17 06:26:16;;;;;;;19.13;9.85;;;;;;;10.70;88.15;101164.81;5014803;28;20140;-70
2022/05/17 06:28:42;;;;;;;21.80;9.93;;;;;;;10.71;87.86;101174.53;5016321;28;20137;-70
2022/05/17 06:31:09;;;;;;;18.63;10.63;;;;;;;10.85;88.03;101182.06;5016031;28;20057;-69
2022/05/17 06:33:35;;;;;;;17.88;9.88;;;;;;;10.75;87.23;101197.38;5016341;28;20069;-69
2022/05/17 06:36:01;;;;;;;17.77;9.35;;;;;;;10.81;87.40;101198.63;5015822;28;20133;-69
2022/05/17 06:38:28;;;;;;;20.38;10.13;;;;;;;10.91;88.07;101191.38;5016195;28;20133;-70
2022/05/17 06:40:54;;;;;;;21.63;10.73;;;;;;;11.01;88.33;101194.00;5015354;28;20054;-70
2022/05/17 06:43:34;;;;;;;18.02;9.63;;;;;;;11.10;88.18;101195.75;5019775;28;20042;-70
2022/05/17 06:46:01;;;;;;;28.35;13.35;;;;;;;11.54;85.72;101233.47;5015639;28;20462;-70
2022/05/17 06:48:29;;;;;;;20.85;11.68;;;;;;;11.08;87.83;101205.81;5014901;28;20061;-70
2022/05/17 06:51:02;;;;;;;23.73;11.07;;;;;;;11.07;88.34;101207.66;5014836;28;20077;-70
2022/05/17 06:53:29;;;;;;;24.20;12.13;;;;;;;11.07;88.26;101217.56;5014402;28;20049;-71
2022/05/17 06:55:56;;;;;;;26.13;13.80;;;;;;;11.14;88.09;101216.81;5015703;28;20140;-70
2022/05/17 06:58:24;;;;;;;16.77;10.02;;;;;;;11.06;87.79;101231.97;5014666;28;20100;-70
2022/05/17 07:00:50;;;;;;;22.90;9.98;;;;;;;11.12;88.11;101228.69;5014750;28;20496;-71
2022/05/17 07:03:17;;;;;;;24.42;10.48;;;;;;;11.20;87.05;101242.19;5014606;28;20497;-70
2022/05/17 07:05:44;;;;;;;17.80;9.50;;;;;;;11.27;87.21;101242.44;5014009;28;20050;-70
2022/05/17 07:08:10;;;;;;;17.88;10.20;;;;;;;11.41;87.19;101252.66;5014884;28;20409;-70
2022/05/17 07:13:22;;;;;;;17.30;9.70;;;;;;;11.57;86.43;101260.88;5014733;28;20049;-70
2022/05/17 07:15:50;;;;;;;20.25;8.75;;;;;;;11.62;85.89;101258.59;5014350;28;20072;-70
2022/05/17 07:18:20;;;;;;;17.60;8.13;;;;;;;11.65;85.27;101266.31;5014667;28;20081;-70
2022/05/17 07:20:48;;;;;;;21.10;8.95;;;;;;;11.67;84.54;101272.41;5015097;28;20092;-70
2022/05/17 07:23:15;;;;;;;11.02;7.50;;;;;;;11.73;84.76;101272.81;5014555;28;20046;-71
2022/05/17 07:25:44;;;;;;;21.17;9.48;;;;;;;11.84;83.76;101284.16;5014376;28;20145;-71
2022/05/17 07:28:17;;;;;;;16.65;8.10;;;;;;;11.95;82.97;101301.06;5014639;28;20452;-71
2022/05/17 07:30:44;;;;;;;18.95;8.52;;;;;;;12.11;82.94;101304.72;5014413;28;20474;-70
2022/05/17 07:33:11;;;;;;;17.95;8.18;;;;;;;12.22;82.77;101318.94;5015224;28;20085;-71
2022/05/17 07:35:38;;;;;;;21.52;9.88;;;;;;;12.30;82.31;101327.06;5014558;28;20058;-70
2022/05/17 07:38:06;;;;;;;22.90;8.65;;;;;;;12.35;82.69;101314.84;5014363;28;20128;-70
2022/05/17 07:40:33;;;;;;;15.70;9.70;;;;;;;12.51;82.68;101319.47;5014144;28;20085;-71
2022/05/17 07:43:00;;;;;;;20.45;9.35;;;;;;;12.46;82.19;101326.34;5014583;28;20104;-70
2022/05/17 07:45:27;;;;;;;18.45;9.35;;;;;;;12.54;82.52;101324.53;5014121;28;20100;-70
2022/05/17 07:47:53;;;;;;;19.63;9.40;;;;;;;12.55;82.45;101326.22;5014719;28;20553;-70
2022/05/17 07:50:20;;;;;;;15.45;8.77;;;;;;;14.05;79.24;101341.81;5014963;28;20054;-70
2022/05/17 07:52:47;;;;;;;19.90;8.93;;;;;;;15.44;70.29;101365.81;5015384;28;20136;-70
2022/05/17 07:55:14;;;;;;;17.23;8.63;;;;;;;15.54;68.54;101369.16;5015194;28;20136;-70
2022/05/17 07:57:40;;;;;;;23.20;8.52;;;;;;;15.39;67.55;101384.41;5013877;28;20103;-69
2022/05/17 08:00:08;;;;;;;18.15;9.68;;;;;;;15.11;68.43;101386.72;5014521;28;20049;-70
2022/05/17 08:02:34;;;;;;;17.10;9.98;;;;;;;15.07;68.99;101383.53;5014726;28;20085;-70
2022/05/17 08:05:02;;;;;;;17.50;9.05;;;;;;;15.19;67.75;101381.31;5014725;28;20064;-71
2022/05/17 08:07:28;;;;;;;22.33;10.23;;;;;;;15.12;68.29;101381.16;5014859;28;20136;-70
2022/05/17 08:09:55;;;;;;;20.63;9.95;;;;;;;15.39;67.65;101382.56;5014611;28;20141;-70
2022/05/17 08:12:21;;;;;;;21.15;10.00;;;;;;;15.43;67.73;101383.91;5014461;28;20141;-70
2022/05/17 08:14:48;;;;;;;23.02;10.40;;;;;;;12.92;78.08;101375.44;5014368;28;20054;-70
2022/05/17 08:17:14;;;;;;;22.70;11.13;;;;;;;12.88;79.48;101361.47;5016420;28;20391;-70
2022/05/17 08:19:41;;;;;;;15.90;9.82;;;;;;;13.08;78.97;101359.38;5019385;28;20409;-70
2022/05/17 08:22:12;;;;;;;19.08;11.35;;;;;;;13.19;78.40;101361.78;5018398;28;20387;-70
2022/05/17 08:27:37;;;;;;;16.08;9.35;;;;;;;15.32;67.16;101391.56;5018330;28;20435;-70
2022/05/17 08:30:16;;;;;;;29.42;10.05;;;;;;;13.86;75.05;101387.97;5018662;28;20092;-70
2022/05/17 08:33:14;;;;;;;16.63;9.45;;;;;;;13.81;75.04;101388.47;5019630;28;20077;-70
2022/05/17 08:35:56;;;;;;;19.60;9.73;;;;;;;13.97;74.43;101391.16;5019871;28;20542;-69
2022/05/17 08:38:33;;;;;;;21.20;10.30;;;;;;;14.03;74.81;101400.47;5019357;28;20050;-70
2022/05/17 08:41:36;;;;;;;14.93;10.00;;;;;;;14.17;74.72;101399.81;5020836;28;20049;-70
2022/05/17 08:44:07;;;;;;;20.52;9.73;;;;;;;13.92;75.12;101396.25;5020864;28;20085;-70
2022/05/17 08:47:06;;;;;;;16.23;10.27;;;;;;;14.14;74.50;101402.00;5020086;28;20085;-70
2022/05/17 08:49:56;;;;;;;10.00;6.25;;;;;;;14.00;74.35;101403.50;5017802;28;20073;-70
2022/05/17 08:52:25;;;;;;;18.00;8.25;;;;;;;14.12;74.19;101418.38;5017178;28;20050;-70
2022/05/17 08:55:27;;;;;;;13.50;7.88;;;;;;;14.16;74.35;101408.09;5000925;28;20401;-70
2022/05/17 08:58:14;;;;;;;12.55;5.95;;;;;;;14.30;72.46;101421.75;5003648;28;20054;-71
2022/05/17 09:00:42;;;;;;;11.23;6.68;;;;;;;14.51;72.94;101415.00;5016841;28;20153;-71
2022/05/17 09:03:48;;;;;;;11.80;6.03;;;;;;;14.60;72.51;101415.81;5016633;28;20136;-70
2022/05/17 09:06:22;;;;;;;16.23;8.77;;;;;;;15.05;71.29;101422.53;5017077;28;20240;-71
2022/05/17 09:09:18;;;;;;;21.13;8.10;;;;;;;15.48;69.31;101432.06;5016852;28;20069;-70
2022/05/17 09:11:57;;;;;;;13.40;5.78;;;;;;;15.56;68.16;101429.31;5016679;28;20144;-71
2022/05/17 09:14:29;;;;;;;11.35;5.15;;;;;;;15.75;67.16;101428.06;5016972;28;20141;-70
2022/05/17 09:16:57;;;;;;;;;;;;;;;15.92;65.13;101423.41;5017661;28;20502;-71
2022/05/17 09:19:24;;;;;;;9.63;5.72;;;;;;;15.88;65.85;101427.47;5017101;28;19921;-71
2022/05/17 09:21:53;;;;;;;10.52;5.18;;;;;;;15.67;66.82;101428.97;5017220;28;20046;-70
2022/05/17 09:24:21;;;;;;;8.77;5.38;;;;;;;15.71;65.14;101422.19;5016524;28;20064;-70
2022/05/17 09:27:00;;;;;;;8.55;4.10;;;;;;;15.88;65.07;101425.63;5016440;28;20068;-71
2022/05/17 09:29:43;;;;;;;13.55;5.45;;;;;;;15.76;65.41;101432.47;5016408;28;20046;-70
2022/05/17 09:32:11;;;;;;;11.48;5.60;;;;;;;15.88;65.07;101435.59;5016257;28;20084;-70
2022/05/17 09:34:43;;;;;;;14.63;5.90;;;;;;;15.96;65.76;101427.44;5016653;28;20132;-70
2022/05/17 09:37:19;;;;;;;11.75;5.10;;;;;;;16.00;63.78;101430.63;5017064;28;20096;-71
2022/05/17 09:39:51;;;;;;;11.23;5.45;;;;;;;16.07;64.32;101443.25;4998758;28;20057;-71
2022/05/17 09:42:27;;;;;;;19.17;5.88;;;;;;;16.25;64.71;101436.72;5015996;28;20225;-72
2022/05/17 09:44:56;;;;;;;12.38;5.07;;;;;;;16.31;64.39;101438.72;5016291;28;20058;-70
2022/05/17 09:47:34;;;;;;;13.10;4.82;;;;;;;16.24;64.11;101449.41;5016159;28;20050;-70
2022/05/17 09:53:03;;;;;;;11.15;4.68;;;;;;;16.12;64.05;101440.00;5016104;28;20172;-69
2022/05/17 09:55:32;;;;;;;12.85;5.05;;;;;;;16.13;63.45;101439.00;5015353;28;20092;-70
2022/05/17 09:58:07;;;;;;;12.88;4.93;;;;;;;16.10;63.26;101448.31;5015400;28;20053;-70
2022/05/17 10:00:44;;;;;;;9.10;4.72;;;;;;;16.25;62.45;101451.09;5016221;28;20386;-70
2022/05/17 10:03:31;;;;;;;10.35;5.03;;;;;;;16.25;62.76;101447.56;5015736;28;20077;-69
2022/05/17 10:06:06;;;;;;;9.95;5.13;;;;;;;16.12;63.12;101448.97;5015286;28;20096;-70
2022/05/17 10:08:37;;;;;;;10.10;5.07;;;;;;;16.02;63.85;101442.97;5015527;28;20409;-69
2022/05/17 10:11:12;;;;;;;10.85;5.18;;;;;;;16.12;64.55;101453.53;5015086;28;20137;-70
2022/05/17 10:13:58;;;;;;;20.73;5.18;;;;;;;16.10;64.03;101451.03;5015397;28;20485;-70
2022/05/17 10:16:45;;;;;;;10.68;4.88;;;;;;;16.35;63.50;101445.44;5015457;28;20093;-69
2022/05/17 10:19:27;;;;;;;15.27;4.88;;;;;;;16.31;63.54;101444.13;5015531;28;20054;-69
2022/05/17 10:22:01;;;;;;;9.07;4.85;;;;;;;16.34;61.90;101443.78;5015184;28;20084;-69
2022/05/17 10:24:42;;;;;;;14.88;5.10;;;;;;;16.41;61.69;101450.16;5014937;28;20137;-69
2022/05/17 10:27:17;;;;;;;15.50;5.75;;;;;;;16.53;60.40;101443.28;5015125;28;20590;-72
2022/05/17 10:29:49;;;;;;;9.63;4.88;;;;;;;16.44;61.42;101438.97;5015604;28;20405;-72
2022/05/17 10:32:27;;;;;;;11.68;5.43;;;;;;;16.45;60.90;101440.63;5014843;28;20152;-72
2022/05/17 10:35:22;;;;;;;12.82;5.35;;;;;;;16.15;62.30;101445.06;5014932;28;20064;-71
2022/05/17 10:38:04;;;;;;;11.18;5.22;;;;;;;16.29;61.66;101447.00;5015056;28;20474;-72
2022/05/17 10:40:33;;;;;;;16.52;6.07;;;;;;;16.08;62.32;101444.94;5014122;28;20050;-71
2022/05/17 10:43:01;;;;;;;10.63;5.32;;;;;;;16.09;62.85;101441.25;5015198;28;20470;-71
2022/05/17 10:45:35;;;;;;;11.75;5.50;;;;;;;16.03;63.78;101441.94;5014995;28;20077;-71
2022/05/17 10:48:24;;;;;;;13.60;5.65;;;;;;;15.91;64.66;101443.34;5015519;28;20461;-71
2022/05/17 10:51:14;;;;;;;13.45;5.55;;;;;;;16.38;63.00;101442.38;5014532;28;20081;-72
2022/05/17 10:54:18;;;;;;;12.13;4.90;;;;;;;16.57;62.73;101444.59;5014465;28;20053;-71
2022/05/17 10:56:55;;;;;;;17.35;5.35;;;;;;;16.78;61.63;101440.38;5015040;28;20137;-71
2022/05/17 10:59:36;;;;;;;10.50;5.25;;;;;;;16.92;60.11;101446.84;5015348;28;20148;-71
2022/05/17 11:02:33;;;;;;;9.70;5.05;;;;;;;16.60;61.35;101444.25;5014921;28;20457;-71
2022/05/17 11:05:18;;;;;;;17.75;6.03;;;;;;;16.68;60.75;101454.19;5014659;28;20054;-71
2022/05/17 11:08:06;;;;;;;14.90;5.63;;;;;;;16.99;60.14;101455.91;5014095;28;20104;-71
2022/05/17 11:10:46;;;;;;;15.50;5.63;;;;;;;16.94;59.78;101458.34;5014319;28;20140;-71
2022/05/17 11:13:37;;;;;;;12.55;5.40;;;;;;;17.02;59.42;101464.50;5014229;28;20129;-71
2022/05/17 11:16:17;;;;;;;11.80;5.15;;;;;;;16.42;60.98;101468.06;5015352;28;20077;-71
2022/05/17 11:19:10;;;;;;;14.57;5.47;;;;;;;16.82;60.28;101455.25;5014113;28;20050;-71
2022/05/17 11:21:45;;;;;;;11.98;4.65;;;;;;;17.07;59.28;101456.69;5014383;28;20395;-71
2022/05/17 11:24:53;;;;;;;16.50;5.85;;;;;;;17.27;58.16;101467.84;5014494;28;20119;-72
2022/05/17 11:27:40;;;;;;;13.25;5.18;;;;;;;17.31;58.18;101461.00;5014271;28;20097;-71
2022/05/17 11:30:09;;;;;;;11.82;4.80;;;;;;;17.42;57.26;101459.72;5014842;28;20136;-71
2022/05/17 11:32:42;;;;;;;12.70;5.07;;;;;;;17.80;56.14;101459.59;5014543;28;20050;-71
2022/05/17 11:35:37;;;;;;;11.80;4.38;;;;;;;17.52;57.09;101467.59;5015013;28;20370;-71
2022/05/17 11:38:06;;;;;;;15.93;4.78;;;;;;;17.37;57.13;101464.84;5014897;28;20143;-71
2022/05/17 11:40:49;;;;;;;15.88;6.97;;;;;;;17.88;54.96;101470.34;5015508;28;20150;-71
2022/05/17 11:43:42;;;;;;;13.88;5.93;;;;;;;17.79;55.13;101460.63;5015460;28;20371;-71
2022/05/17 11:46:24;;;;;;;19.88;7.13;;;;;;;18.28;53.63;101460.78;5015875;28;20081;-71
2022/05/17 11:49:12;;;;;;;13.73;4.72;;;;;;;18.40;53.10;101455.69;5017171;28;20096;-72
2022/05/17 11:51:58;;;;;;;16.27;4.55;;;;;;;18.62;51.91;101463.81;5014944;28;20042;-72